CheckWX is a tool to help pilots better visualize weather data.  It is not intended as a substitute for an official pre-flight weather briefing.

17:00:27 UTC

KLCH METAR
Lake Charles Regional Airport
Lake Charles, Louisiana, USA
Current

7 mins ago

KLCH 121653Z 23007KT 10SM FEW023 31/26 A2993 RMK AO2 SLP142 T03060256
Observed
Jul-12 @ 16:53 UTC
Wind
  • 230° at 7 KTS
Visibility
10 SM
Flight Rules
VFR
Cloud Levels
  • Few at 2,300' AGL
Temperature
31°C / 88°F
Dewpoint
26°C / 79°F
Humidity
75%
Altimeter
29.93" Hg
Pressure
1013.52 hPa
Previous

46 mins ago

KLCH 121614Z 27007KT 10SM SCT025 31/26 A2995 RMK AO2 T03060256
Observed
Jul-12 @ 16:14 UTC
Wind
  • 270° at 7 KTS
Visibility
10 SM
Flight Rules
VFR
Cloud Levels
  • Scattered at 2,500' AGL
Temperature
31°C / 88°F
Dewpoint
26°C / 79°F
Humidity
75%
Altimeter
29.95" Hg
Pressure
1014.22 hPa
Previous

1 hour ago

KLCH 121553Z 25009G16KT 210V300 10SM BKN023 31/26 A2996 RMK AO2 SLP152 T03060256
Observed
Jul-12 @ 15:53 UTC
Wind
  • 250° at 9 KTS
  • Gusting to 16 KTS
Visibility
10 SM
Flight Rules
MVFR
Cloud Levels
  • Broken at 2,300' AGL
Temperature
31°C / 88°F
Dewpoint
26°C / 79°F
Humidity
75%
Altimeter
29.96" Hg
Pressure
1014.52 hPa